| time (UTC) | temp F | wind direction | speed MPH | gust MPH | rain 1hr in | rain 24hr in | rain mn in | humidity % | barometer mb |
| 20260508203017 | 68 | 184 | 5.0 | 11.0 | 0.00 | 0.00 | 0.00 | 32 | 1016.0 |
| 20260508202958 | 68 | 184 | 5.0 | 11.0 | 0.00 | 0.00 | 0.00 | 32 | 1015.7 |
| 20260508202458 | 67 | 221 | 4.0 | 8.0 | 0.00 | 0.00 | 0.00 | 34 | 1015.7 |
| 20260508201958 | 68 | 75 | 4.0 | 11.0 | 0.00 | 0.00 | 0.00 | 35 | 1015.7 |
| 20260508201517 | 66 | 138 | 3.0 | 13.0 | 0.00 | 0.00 | 0.00 | 37 | 1016.2 |
| 20260508200959 | 66 | 85 | 4.0 | 10.0 | 0.00 | 0.00 | 0.00 | 34 | 1015.8 |
| 20260508200453 | 67 | 111 | 3.0 | 10.0 | 0.00 | 0.00 | 0.00 | 32 | 1015.8 |
| 20260508200023 | 67 | 181 | 2.0 | 11.0 | 0.00 | 0.00 | 0.00 | 34 | 1016.5 |
| 20260508195954 | 67 | 205 | 3.0 | 9.0 | 0.00 | 0.00 | 0.00 | 35 | 1015.9 |
| 20260508195454 | 67 | 158 | 4.0 | 9.0 | 0.00 | 0.00 | 0.00 | 36 | 1015.9 |
| 20260508194955 | 67 | 65 | 3.0 | 7.0 | 0.00 | 0.00 | 0.00 | 34 | 1015.9 |
| 20260508194527 | 67 | 138 | 2.0 | 8.0 | 0.00 | 0.00 | 0.00 | 35 | 1016.6 |
| 20260508194454 | 67 | 143 | 3.0 | 7.0 | 0.00 | 0.00 | 0.00 | 36 | 1016.0 |
| 20260508193954 | 66 | 247 | 3.0 | 7.0 | 0.00 | 0.00 | 0.00 | 36 | 1016.0 |
| 20260508193455 | 66 | 179 | 4.0 | 9.0 | 0.00 | 0.00 | 0.00 | 36 | 1016.0 |
| 20260508193012 | 65 | 208 | 3.0 | 10.0 | 0.00 | 0.00 | 0.00 | 34 | 1016.7 |
| 20260508192953 | 66 | 207 | 3.0 | 9.0 | 0.00 | 0.00 | 0.00 | 33 | 1016.0 |
| 20260508192454 | 66 | 113 | 3.0 | 7.0 | 0.00 | 0.00 | 0.00 | 35 | 1016.0 |
| 20260508191514 | 65 | 202 | 1.0 | 8.0 | 0.00 | 0.00 | 0.00 | 32 | 1016.7 |
| 20260508191451 | 65 | 210 | 3.0 | 7.0 | 0.00 | 0.00 | 0.00 | 32 | 1016.0 |
| 20260508190950 | 66 | 64 | 3.0 | 7.0 | 0.00 | 0.00 | 0.00 | 32 | 1016.2 |
| 20260508190449 | 66 | 190 | 3.0 | 7.0 | 0.00 | 0.00 | 0.00 | 32 | 1016.2 |
| 20260508190038 | 66 | 197 | 3.0 | 10.0 | 0.00 | 0.00 | 0.00 | 31 | 1016.8 |
| 20260508185950 | 66 | 188 | 3.0 | 8.0 | 0.00 | 0.00 | 0.00 | 31 | 1016.2 |
| 20260508185451 | 67 | 148 | 2.0 | 8.0 | 0.00 | 0.00 | 0.00 | 32 | 1016.3 |
| 20260508184950 | 67 | 70 | 1.0 | 3.0 | 0.00 | 0.00 | 0.00 | 33 | 1016.3 |
| 20260508184533 | 65 | 316 | 1.0 | 3.0 | 0.00 | 0.00 | 0.00 | 33 | 1017.0 |
| 20260508184449 | 65 | 319 | 1.0 | 3.0 | 0.00 | 0.00 | 0.00 | 33 | 1016.3 |
| 20260508183951 | 64 | 318 | 2.0 | 7.0 | 0.00 | 0.00 | 0.00 | 35 | 1016.3 |
| 20260508183444 | 64 | 151 | 3.0 | 8.0 | 0.00 | 0.00 | 0.00 | 35 | 1016.4 |
| 20260508183035 | 64 | 93 | 4.0 | 9.0 | 0.00 | 0.00 | 0.00 | 32 | 1017.0 |
| 20260508182938 | 65 | 86 | 2.0 | 7.0 | 0.00 | 0.00 | 0.00 | 32 | 1016.5 |
| 20260508181933 | 63 | 205 | 2.0 | 6.0 | 0.00 | 0.00 | 0.00 | 33 | 1016.6 |
| 20260508181518 | 63 | 53 | 2.0 | 10.0 | 0.00 | 0.00 | 0.00 | 32 | 1017.2 |
| 20260508180933 | 64 | 340 | 3.0 | 9.0 | 0.00 | 0.00 | 0.00 | 32 | 1016.8 |
| 20260508180431 | 64 | 348 | 2.0 | 8.0 | 0.00 | 0.00 | 0.00 | 34 | 1016.8 |
| 20260508180018 | 63 | 342 | 1.0 | 8.0 | 0.00 | 0.00 | 0.00 | 34 | 1017.3 |
| 20260508175933 | 63 | 317 | 3.0 | 7.0 | 0.00 | 0.00 | 0.00 | 35 | 1016.8 |
| 20260508174523 | 63 | 242 | 1.0 | 6.0 | 0.00 | 0.00 | 0.00 | 34 | 1017.4 |
| 20260508174430 | 63 | 26 | 3.0 | 5.0 | 0.00 | 0.00 | 0.00 | 34 | 1016.9 |
| 20260508173929 | 63 | 67 | 3.0 | 8.0 | 0.00 | 0.00 | 0.00 | 33 | 1017.0 |
| 20260508173428 | 63 | 169 | 3.0 | 8.0 | 0.00 | 0.00 | 0.00 | 33 | 1017.1 |
| 20260508173026 | 62 | 294 | 2.0 | 8.0 | 0.00 | 0.00 | 0.00 | 34 | 1017.5 |
| 20260508172927 | 62 | 302 | 3.0 | 7.0 | 0.00 | 0.00 | 0.00 | 37 | 1017.1 |
| 20260508172427 | 63 | 345 | 3.0 | 8.0 | 0.00 | 0.00 | 0.00 | 34 | 1017.0 |
| 20260508171925 | 62 | 56 | 3.0 | 8.0 | 0.00 | 0.00 | 0.00 | 36 | 1016.9 |
| 20260508171528 | 62 | 45 | 1.0 | 9.0 | 0.00 | 0.00 | 0.00 | 39 | 1017.4 |
| 20260508170926 | 62 | 25 | 3.0 | 9.0 | 0.00 | 0.00 | 0.00 | 37 | 1017.0 |
| 20260508170427 | 62 | 47 | 3.0 | 9.0 | 0.00 | 0.00 | 0.00 | 37 | 1017.0 |
| 20260508170018 | 61 | 50 | 2.0 | 10.0 | 0.00 | 0.00 | 0.00 | 39 | 1017.6 |
| 20260508165927 | 61 | 37 | 3.0 | 9.0 | 0.00 | 0.00 | 0.00 | 37 | 1017.1 |
| 20260508165420 | 61 | 345 | 3.0 | 9.0 | 0.00 | 0.00 | 0.00 | 39 | 1017.1 |
| 20260508164913 | 61 | 314 | 3.0 | 9.0 | 0.00 | 0.00 | 0.00 | 41 | 1017.1 |
| 20260508164533 | 60 | 59 | 3.0 | 11.0 | 0.00 | 0.00 | 0.00 | 38 | 1017.6 |
| 20260508164407 | 60 | 359 | 3.0 | 10.0 | 0.00 | 0.00 | 0.00 | 39 | 1017.3 |
| 20260508163355 | 59 | 343 | 4.0 | 12.0 | 0.00 | 0.00 | 0.00 | 43 | 1017.3 |
| 20260508163030 | 58 | 326 | 5.0 | 14.0 | 0.00 | 0.00 | 0.00 | 42 | 1017.8 |
| 20260508162849 | 59 | 68 | 4.0 | 13.0 | 0.00 | 0.00 | 0.00 | 45 | 1017.3 |
| 20260508162344 | 58 | 22 | 3.0 | 13.0 | 0.00 | 0.00 | 0.00 | 45 | 1017.4 |
| 20260508161837 | 58 | 311 | 4.0 | 11.0 | 0.00 | 0.00 | 0.00 | 46 | 1017.4 |
| 20260508161527 | 58 | 325 | 4.0 | 12.0 | 0.00 | 0.00 | 0.00 | 45 | 1017.8 |
| 20260508160825 | 58 | 321 | 3.0 | 9.0 | 0.00 | 0.00 | 0.00 | 49 | 1017.4 |
| 20260508160319 | 57 | 359 | 3.0 | 10.0 | 0.00 | 0.00 | 0.00 | 52 | 1017.5 |
| 20260508160025 | 56 | 280 | 2.0 | 13.0 | 0.00 | 0.00 | 0.00 | 54 | 1017.8 |
| 20260508155813 | 56 | 321 | 4.0 | 12.0 | 0.00 | 0.00 | 0.00 | 53 | 1017.5 |
| 20260508155307 | 55 | 1 | 5.0 | 12.0 | 0.00 | 0.00 | 0.00 | 55 | 1017.4 |
| 20260508154518 | 55 | 307 | 3.0 | 12.0 | 0.00 | 0.00 | 0.00 | 56 | 1017.9 |
| 20260508153749 | 54 | 56 | 5.0 | 13.0 | 0.00 | 0.00 | 0.00 | 59 | 1017.4 |
| 20260508153245 | 53 | 51 | 5.0 | 14.0 | 0.00 | 0.00 | 0.00 | 58 | 1017.4 |
| 20260508153032 | 53 | 331 | 6.0 | 15.0 | 0.00 | 0.00 | 0.00 | 56 | 1017.8 |
| 20260508152233 | 53 | 0 | 5.0 | 14.0 | 0.00 | 0.00 | 0.00 | 59 | 1017.4 |
| 20260508151523 | 52 | 308 | 5.0 | 15.0 | 0.00 | 0.00 | 0.00 | 60 | 1017.9 |
| 20260508151219 | 52 | 319 | 5.0 | 14.0 | 0.00 | 0.00 | 0.00 | 60 | 1017.5 |
| 20260508150713 | 52 | 37 | 5.0 | 16.0 | 0.00 | 0.00 | 0.00 | 60 | 1017.6 |
| 20260508150208 | 51 | 318 | 5.0 | 16.0 | 0.00 | 0.00 | 0.00 | 61 | 1017.6 |
| 20260508150029 | 51 | 335 | 6.0 | 16.0 | 0.00 | 0.00 | 0.00 | 61 | 1018.1 |
| 20260508145701 | 51 | 326 | 5.0 | 15.0 | 0.00 | 0.00 | 0.00 | 61 | 1017.7 |
| 20260508145155 | 51 | 327 | 5.0 | 13.0 | 0.00 | 0.00 | 0.00 | 63 | 1017.7 |
| 20260508144650 | 51 | 297 | 5.0 | 13.0 | 0.00 | 0.00 | 0.00 | 62 | 1017.7 |
| 20260508144529 | 51 | 294 | 7.0 | 14.0 | 0.00 | 0.00 | 0.00 | 62 | 1018.2 |
| 20260508144143 | 50 | 44 | 4.0 | 13.0 | 0.00 | 0.00 | 0.00 | 65 | 1017.9 |
| 20260508143133 | 49 | 359 | 4.0 | 15.0 | 0.00 | 0.00 | 0.00 | 67 | 1018.0 |
| 20260508143023 | 49 | 290 | 3.0 | 16.0 | 0.00 | 0.00 | 0.00 | 68 | 1018.2 |
| 20260508142626 | 49 | 344 | 5.0 | 18.0 | 0.00 | 0.00 | 0.00 | 68 | 1017.9 |
| 20260508142119 | 48 | 322 | 7.0 | 18.0 | 0.00 | 0.00 | 0.00 | 69 | 1017.9 |
| 20260508141613 | 48 | 354 | 6.0 | 16.0 | 0.00 | 0.00 | 0.00 | 69 | 1017.9 |
| 20260508141525 | 48 | 307 | 6.0 | 17.0 | 0.00 | 0.00 | 0.00 | 69 | 1018.2 |
| 20260508141107 | 48 | 357 | 6.0 | 16.0 | 0.00 | 0.00 | 0.00 | 69 | 1017.7 |
| 20260508140055 | 48 | 311 | 5.0 | 15.0 | 0.00 | 0.00 | 0.00 | 68 | 1017.9 |
| 20260508140027 | 48 | 329 | 4.0 | 13.0 | 0.00 | 0.00 | 0.00 | 68 | 1018.0 |
| 20260508135044 | 49 | 83 | 4.0 | 14.0 | 0.00 | 0.00 | 0.00 | 65 | 1017.5 |
| 20260508134537 | 49 | 8 | 5.0 | 14.0 | 0.00 | 0.00 | 0.00 | 65 | 1017.5 |
| 20260508134533 | 49 | 250 | 2.0 | 15.0 | 0.00 | 0.00 | 0.00 | 64 | 1017.8 |
| 20260508134031 | 50 | 289 | 5.0 | 14.0 | 0.00 | 0.00 | 0.00 | 60 | 1017.4 |
| 20260508133525 | 51 | 311 | 4.0 | 11.0 | 0.00 | 0.00 | 0.00 | 54 | 1017.3 |
| 20260508133031 | 52 | 342 | 3.0 | 11.0 | 0.00 | 0.00 | 0.00 | 50 | 1017.2 |
| 20260508133020 | 52 | 276 | 2.0 | 11.0 | 0.00 | 0.00 | 0.00 | 51 | 1016.9 |
| 20260508132514 | 52 | 1 | 2.0 | 8.0 | 0.00 | 0.00 | 0.00 | 49 | 1016.8 |
| 20260508132007 | 52 | 272 | 1.0 | 6.0 | 0.00 | 0.00 | 0.00 | 49 | 1016.6 |
| 20260508131520 | 50 | 305 | 1.0 | 5.0 | 0.00 | 0.00 | 0.00 | 50 | 1017.0 |
| 20260508130955 | 50 | 307 | 0.0 | 3.0 | 0.00 | 0.00 | 0.00 | 55 | 1016.4 |
| 20260508130449 | 49 | 318 | 0.0 | 1.0 | 0.00 | 0.00 | 0.00 | 59 | 1016.4 |
| 20260508130033 | 48 | 319 | 0.0 | 1.0 | 0.00 | 0.00 | 0.00 | 59 | 1016.6 |
| 20260508125943 | 48 | 326 | 0.0 | 1.0 | 0.00 | 0.00 | 0.00 | 60 | 1016.3 |
| 20260508125437 | 47 | 338 | 0.0 | 0.0 | 0.00 | 0.00 | 0.00 | 61 | 1016.3 |
| 20260508124931 | 47 | 338 | 0.0 | 0.0 | 0.00 | 0.00 | 0.00 | 61 | 1016.3 |
| 20260508124528 | 46 | 332 | 0.0 | 0.0 | 0.00 | 0.00 | 0.00 | 63 | 1016.8 |
| 20260508124426 | 46 | 338 | 0.0 | 0.0 | 0.00 | 0.00 | 0.00 | 64 | 1016.2 |
| 20260508123920 | 46 | 338 | 0.0 | 0.0 | 0.00 | 0.00 | 0.00 | 64 | 1016.3 |
| 20260508123414 | 45 | 338 | 0.0 | 0.0 | 0.00 | 0.00 | 0.00 | 63 | 1016.2 |
| 20260508123017 | 44 | 332 | 0.0 | 0.0 | 0.00 | 0.00 | 0.00 | 63 | 1016.6 |
| 20260508122907 | 45 | 338 | 0.0 | 0.0 | 0.00 | 0.00 | 0.00 | 64 | 1016.0 |
| 20260508122401 | 44 | 338 | 0.0 | 1.0 | 0.00 | 0.00 | 0.00 | 61 | 1016.0 |
| 20260508121855 | 44 | 338 | 0.0 | 1.0 | 0.00 | 0.00 | 0.00 | 62 | 1015.9 |
| 20260508121521 | 44 | 332 | 0.0 | 2.0 | 0.00 | 0.00 | 0.00 | 61 | 1016.4 |
| 20260508121349 | 44 | 338 | 0.0 | 2.0 | 0.00 | 0.00 | 0.00 | 62 | 1015.9 |
| 20260508120843 | 44 | 338 | 1.0 | 3.0 | 0.00 | 0.00 | 0.00 | 62 | 1015.8 |
| 20260508120337 | 44 | 324 | 1.0 | 4.0 | 0.00 | 0.00 | 0.00 | 63 | 1015.8 |
| 20260508120025 | 43 | 331 | 1.0 | 4.0 | 0.00 | 0.00 | 0.00 | 63 | 1016.3 |
| 20260508115831 | 43 | 347 | 1.0 | 4.0 | 0.00 | 0.00 | 0.00 | 64 | 1015.7 |
| 20260508115325 | 43 | 335 | 1.0 | 3.0 | 0.00 | 0.00 | 0.00 | 65 | 1015.7 |
| 20260508114523 | 42 | 333 | 0.0 | 4.0 | 0.00 | 0.00 | 0.00 | 67 | 1016.1 |
| 20260508114314 | 42 | 339 | 1.0 | 4.0 | 0.00 | 0.00 | 0.00 | 67 | 1015.5 |
| 20260508113807 | 42 | 339 | 1.0 | 4.0 | 0.00 | 0.00 | 0.00 | 68 | 1015.7 |
| 20260508113301 | 41 | 328 | 1.0 | 3.0 | 0.00 | 0.00 | 0.00 | 70 | 1015.7 |
| 20260508113028 | 40 | 339 | 0.0 | 3.0 | 0.00 | 0.00 | 0.00 | 70 | 1016.0 |
| 20260508112757 | 40 | 342 | 0.0 | 3.0 | 0.00 | 0.00 | 0.00 | 72 | 1015.7 |
| 20260508112249 | 39 | 344 | 0.0 | 1.0 | 0.00 | 0.00 | 0.00 | 74 | 1015.5 |
| 20260508111744 | 39 | 344 | 0.0 | 0.0 | 0.00 | 0.00 | 0.00 | 74 | 1015.5 |
| 20260508111518 | 39 | 338 | 0.0 | 0.0 | 0.00 | 0.00 | 0.00 | 73 | 1015.9 |
| 20260508111237 | 40 | 344 | 0.0 | 0.0 | 0.00 | 0.00 | 0.00 | 74 | 1015.5 |
| 20260508110732 | 40 | 343 | 0.0 | 1.0 | 0.00 | 0.00 | 0.00 | 74 | 1015.5 |
| 20260508110226 | 40 | 343 | 0.0 | 1.0 | 0.00 | 0.00 | 0.00 | 73 | 1015.5 |
| 20260508110022 | 40 | 337 | 0.0 | 0.0 | 0.00 | 0.00 | 0.00 | 72 | 1015.9 |
| 20260508105719 | 40 | 343 | 0.0 | 0.0 | 0.00 | 0.00 | 0.00 | 72 | 1015.5 |
| 20260508105213 | 40 | 343 | 0.0 | 0.0 | 0.00 | 0.00 | 0.00 | 70 | 1015.4 |
| 20260508104707 | 41 | 343 | 0.0 | 0.0 | 0.00 | 0.00 | 0.00 | 69 | 1015.4 |
| 20260508104529 | 41 | 337 | 0.0 | 0.0 | 0.00 | 0.00 | 0.00 | 68 | 1015.7 |
| 20260508104201 | 41 | 343 | 0.0 | 0.0 | 0.00 | 0.00 | 0.00 | 69 | 1015.4 |
| 20260508103655 | 42 | 343 | 0.0 | 0.0 | 0.00 | 0.00 | 0.00 | 67 | 1015.4 |
| 20260508103033 | 42 | 337 | 0.0 | 0.0 | 0.00 | 0.00 | 0.00 | 65 | 1015.8 |
| 20260508101631 | 43 | 343 | 0.0 | 0.0 | 0.00 | 0.00 | 0.00 | 65 | 1015.4 |
| 20260508101528 | 43 | 337 | 0.0 | 0.0 | 0.00 | 0.00 | 0.00 | 64 | 1015.8 |
| 20260508101127 | 44 | 343 | 0.0 | 0.0 | 0.00 | 0.00 | 0.00 | 64 | 1015.4 |
| 20260508100620 | 44 | 343 | 0.0 | 1.0 | 0.00 | 0.00 | 0.00 | 63 | 1015.3 |
| 20260508100114 | 44 | 343 | 0.0 | 2.0 | 0.00 | 0.00 | 0.00 | 64 | 1015.3 |
| 20260508100017 | 43 | 337 | 0.0 | 2.0 | 0.00 | 0.00 | 0.00 | 63 | 1015.7 |
| 20260508095607 | 44 | 343 | 1.0 | 3.0 | 0.00 | 0.00 | 0.00 | 64 | 1015.2 |
| 20260508095101 | 43 | 314 | 1.0 | 3.0 | 0.00 | 0.00 | 0.00 | 66 | 1015.3 |
| 20260508094555 | 42 | 329 | 0.0 | 3.0 | 0.00 | 0.00 | 0.00 | 67 | 1015.2 |
| 20260508094506 | 42 | 323 | 0.0 | 3.0 | 0.00 | 0.00 | 0.00 | 67 | 1015.7 |
| 20260508094049 | 42 | 338 | 0.0 | 2.0 | 0.00 | 0.00 | 0.00 | 69 | 1015.3 |
| 20260508093543 | 43 | 329 | 0.0 | 1.0 | 0.00 | 0.00 | 0.00 | 69 | 1015.3 |
| 20260508093037 | 44 | 328 | 0.0 | 0.0 | 0.00 | 0.00 | 0.00 | 68 | 1015.3 |
| 20260508093008 | 43 | 323 | 0.0 | 0.0 | 0.00 | 0.00 | 0.00 | 67 | 1015.8 |
| 20260508092532 | 44 | 328 | 0.0 | 1.0 | 0.00 | 0.00 | 0.00 | 67 | 1015.4 |
| 20260508091527 | 45 | 328 | 1.0 | 4.0 | 0.00 | 0.00 | 0.00 | 67 | 1015.3 |
| 20260508091514 | 45 | 323 | 0.0 | 4.0 | 0.00 | 0.00 | 0.00 | 66 | 1015.8 |
| 20260508091026 | 45 | 331 | 1.0 | 4.0 | 0.00 | 0.00 | 0.00 | 66 | 1015.4 |
| 20260508090016 | 46 | 325 | 0.0 | 3.0 | 0.00 | 0.00 | 0.00 | 65 | 1015.9 |
| 20260508085526 | 46 | 333 | 0.0 | 3.0 | 0.00 | 0.00 | 0.00 | 65 | 1015.4 |
| 20260508085025 | 46 | 344 | 0.0 | 3.0 | 0.00 | 0.00 | 0.00 | 65 | 1015.5 |
| 20260508084524 | 47 | 340 | 0.0 | 4.0 | 0.00 | 0.00 | 0.00 | 64 | 1015.7 |
| 20260508084522 | 46 | 340 | 0.0 | 4.0 | 0.00 | 0.00 | 0.00 | 64 | 1016.1 |
| 20260508084023 | 47 | 340 | 1.0 | 4.0 | 0.00 | 0.00 | 0.00 | 64 | 1015.8 |
| 20260508083521 | 47 | 347 | 0.0 | 3.0 | 0.00 | 0.00 | 0.00 | 64 | 1015.9 |
| 20260508083023 | 47 | 335 | 0.0 | 3.0 | 0.00 | 0.00 | 0.00 | 64 | 1015.9 |
| 20260508083006 | 47 | 329 | 0.0 | 3.0 | 0.00 | 0.00 | 0.00 | 63 | 1016.5 |
| 20260508082520 | 47 | 339 | 1.0 | 4.0 | 0.00 | 0.00 | 0.00 | 63 | 1016.2 |
| 20260508081517 | 47 | 342 | 1.0 | 5.0 | 0.00 | 0.00 | 0.00 | 62 | 1016.3 |
| 20260508081511 | 47 | 338 | 1.0 | 5.0 | 0.00 | 0.00 | 0.00 | 62 | 1016.8 |
| 20260508081017 | 47 | 333 | 0.0 | 3.0 | 0.00 | 0.00 | 0.00 | 62 | 1016.2 |
| 20260508080515 | 48 | 7 | 1.0 | 3.0 | 0.00 | 0.00 | 0.00 | 61 | 1016.0 |
| 20260508080015 | 48 | 335 | 0.0 | 2.0 | 0.00 | 0.00 | 0.00 | 61 | 1015.9 |
| 20260508080012 | 48 | 329 | 0.0 | 2.0 | 0.00 | 0.00 | 0.00 | 60 | 1016.4 |
| 20260508075516 | 48 | 355 | 0.0 | 4.0 | 0.00 | 0.00 | 0.00 | 61 | 1016.0 |
| 20260508075009 | 48 | 334 | 1.0 | 4.0 | 0.00 | 0.00 | 0.00 | 60 | 1016.0 |
| 20260508074520 | 48 | 43 | 0.0 | 3.0 | 0.00 | 0.00 | 0.00 | 59 | 1016.7 |
| 20260508074506 | 49 | 37 | 0.0 | 3.0 | 0.00 | 0.00 | 0.00 | 60 | 1016.2 |
| 20260508074002 | 49 | 15 | 1.0 | 3.0 | 0.00 | 0.00 | 0.00 | 59 | 1016.2 |
| 20260508073503 | 49 | 29 | 1.0 | 3.0 | 0.00 | 0.00 | 0.00 | 59 | 1016.0 |
| 20260508073026 | 49 | 52 | 0.0 | 6.0 | 0.00 | 0.00 | 0.00 | 57 | 1016.6 |
| 20260508073003 | 50 | 46 | 1.0 | 6.0 | 0.00 | 0.00 | 0.00 | 58 | 1016.2 |
| 20260508072000 | 50 | 345 | 0.0 | 1.0 | 0.00 | 0.00 | 0.00 | 56 | 1016.3 |
| 20260508071510 | 50 | 338 | 0.0 | 1.0 | 0.00 | 0.00 | 0.00 | 55 | 1016.8 |
| 20260508071458 | 50 | 345 | 0.0 | 1.0 | 0.00 | 0.00 | 0.00 | 55 | 1016.3 |
| 20260508070957 | 50 | 342 | 0.0 | 3.0 | 0.00 | 0.00 | 0.00 | 55 | 1016.3 |
| 20260508070456 | 50 | 323 | 1.0 | 3.0 | 0.00 | 0.00 | 0.00 | 55 | 1016.4 |
| 20260508070027 | 49 | 329 | 1.0 | 4.0 | 0.00 | 0.00 | 0.00 | 55 | 1017.0 |
| 20260508065955 | 50 | 335 | 1.0 | 4.0 | 0.00 | 0.00 | 0.00 | 55 | 1016.4 |
| 20260508065455 | 50 | 56 | 1.0 | 5.0 | 0.00 | 0.00 | 0.00 | 56 | 1016.4 |
| 20260508064523 | 50 | 5 | 0.0 | 3.0 | 0.00 | 0.00 | 0.00 | 55 | 1016.8 |
| 20260508064456 | 51 | 1 | 0.0 | 3.0 | 0.00 | 0.00 | 0.00 | 55 | 1016.3 |
| 20260508063455 | 51 | 13 | 0.0 | 3.0 | 0.00 | 0.00 | 0.00 | 53 | 1016.2 |
| 20260508063018 | 50 | 55 | 0.0 | 3.0 | 0.00 | 0.00 | 0.00 | 53 | 1016.8 |
| 20260508062954 | 51 | 49 | 0.0 | 3.0 | 0.00 | 0.00 | 0.00 | 53 | 1016.3 |
| 20260508062455 | 51 | 57 | 1.0 | 2.0 | 0.00 | 0.00 | 0.00 | 52 | 1016.3 |
| 20260508061955 | 51 | 321 | 1.0 | 3.0 | 0.00 | 0.00 | 0.00 | 51 | 1016.2 |
| 20260508061522 | 50 | 319 | 1.0 | 3.0 | 0.00 | 0.00 | 0.00 | 51 | 1016.7 |
| 20260508061456 | 51 | 325 | 1.0 | 3.0 | 0.00 | 0.00 | 0.00 | 52 | 1016.2 |
| 20260508060956 | 50 | 285 | 0.0 | 3.0 | 0.00 | 0.00 | 0.00 | 52 | 1016.2 |
| 20260508060456 | 50 | 347 | 0.0 | 2.0 | 0.00 | 0.00 | 0.00 | 52 | 1016.0 |
| 20260508060026 | 50 | 326 | 0.0 | 1.0 | 0.00 | 0.00 | 0.00 | 52 | 1016.7 |
| 20260508055954 | 50 | 332 | 0.0 | 1.0 | 0.00 | 0.00 | 0.00 | 53 | 1016.2 |
| 20260508055448 | 50 | 332 | 0.0 | 1.0 | 0.00 | 0.00 | 0.00 | 51 | 1016.0 |
| 20260508054531 | 51 | 320 | 0.0 | 0.0 | 0.00 | 0.00 | 0.00 | 49 | 1016.7 |
| 20260508053930 | 51 | 326 | 0.0 | 0.0 | 0.00 | 0.00 | 0.00 | 49 | 1016.0 |
| 20260508053017 | 51 | 320 | 0.0 | 0.0 | 0.00 | 0.00 | 0.00 | 47 | 1016.6 |
| 20260508052919 | 52 | 326 | 0.0 | 0.0 | 0.00 | 0.00 | 0.00 | 47 | 1015.9 |
| 20260508052413 | 53 | 326 | 0.0 | 1.0 | 0.00 | 0.00 | 0.00 | 47 | 1016.0 |
| 20260508051906 | 53 | 326 | 0.0 | 1.0 | 0.00 | 0.00 | 0.00 | 45 | 1016.0 |
| 20260508051522 | 53 | 323 | 0.0 | 0.0 | 0.00 | 0.00 | 0.00 | 43 | 1016.7 |
| 20260508051401 | 53 | 331 | 0.0 | 0.0 | 0.00 | 0.00 | 0.00 | 44 | 1016.2 |
| 20260508050348 | 54 | 331 | 0.0 | 1.0 | 0.00 | 0.00 | 0.00 | 43 | 1015.9 |
| 20260508050033 | 54 | 325 | 0.0 | 1.0 | 0.00 | 0.00 | 0.00 | 41 | 1016.6 |
| 20260508045842 | 54 | 331 | 0.0 | 1.0 | 0.00 | 0.00 | 0.00 | 42 | 1015.9 |
| 20260508044831 | 54 | 331 | 1.0 | 3.0 | 0.00 | 0.00 | 0.00 | 41 | 1015.9 |
| 20260508044526 | 54 | 329 | 0.0 | 3.0 | 0.00 | 0.00 | 0.00 | 40 | 1016.6 |
| 20260508044324 | 54 | 44 | 1.0 | 3.0 | 0.00 | 0.00 | 0.00 | 41 | 1015.9 |
| 20260508043818 | 55 | 44 | 2.0 | 5.0 | 0.00 | 0.00 | 0.00 | 42 | 1015.9 |
| 20260508043038 | 55 | 265 | 2.0 | 6.0 | 0.00 | 0.00 | 0.00 | 38 | 1016.8 |
| 20260508042806 | 55 | 284 | 0.0 | 2.0 | 0.00 | 0.00 | 0.00 | 39 | 1016.2 |
| 20260508042300 | 56 | 13 | 0.0 | 3.0 | 0.00 | 0.00 | 0.00 | 40 | 1016.2 |
| 20260508041521 | 55 | 349 | 0.0 | 3.0 | 0.00 | 0.00 | 0.00 | 38 | 1016.7 |
| 20260508041248 | 56 | 330 | 1.0 | 3.0 | 0.00 | 0.00 | 0.00 | 39 | 1016.2 |
| 20260508040742 | 56 | 330 | 0.0 | 2.0 | 0.00 | 0.00 | 0.00 | 41 | 1016.2 |
| 20260508040236 | 56 | 297 | 0.0 | 2.0 | 0.00 | 0.00 | 0.00 | 42 | 1016.2 |
| 20260508040004 | 55 | 350 | 0.0 | 2.0 | 0.00 | 0.00 | 0.00 | 43 | 1016.8 |
| 20260508035730 | 56 | 357 | 0.0 | 2.0 | 0.00 | 0.00 | 0.00 | 43 | 1016.2 |
| 20260508035224 | 56 | 357 | 0.0 | 2.0 | 0.00 | 0.00 | 0.00 | 43 | 1016.2 |
| 20260508034719 | 56 | 22 | 0.0 | 1.0 | 0.00 | 0.00 | 0.00 | 44 | 1016.0 |
| 20260508034508 | 55 | 29 | 0.0 | 1.0 | 0.00 | 0.00 | 0.00 | 43 | 1016.7 |
| 20260508034213 | 56 | 30 | 0.0 | 1.0 | 0.00 | 0.00 | 0.00 | 43 | 1015.9 |
| 20260508033200 | 56 | 33 | 0.0 | 2.0 | 0.00 | 0.00 | 0.00 | 42 | 1015.8 |
| 20260508033012 | 56 | 39 | 0.0 | 2.0 | 0.00 | 0.00 | 0.00 | 41 | 1016.3 |
| 20260508032654 | 56 | 33 | 0.0 | 2.0 | 0.00 | 0.00 | 0.00 | 42 | 1015.8 |
| 20260508032148 | 56 | 125 | 0.0 | 1.0 | 0.00 | 0.00 | 0.00 | 41 | 1015.7 |
| 20260508031643 | 56 | 125 | 0.0 | 1.0 | 0.00 | 0.00 | 0.00 | 40 | 1015.5 |
| 20260508031517 | 56 | 128 | 0.0 | 2.0 | 0.00 | 0.00 | 0.00 | 40 | 1016.1 |
| 20260508031136 | 57 | 125 | 0.0 | 2.0 | 0.00 | 0.00 | 0.00 | 40 | 1015.5 |
| 20260508030125 | 57 | 125 | 0.0 | 2.0 | 0.00 | 0.00 | 0.00 | 39 | 1015.3 |
| 20260508030025 | 57 | 128 | 0.0 | 2.0 | 0.00 | 0.00 | 0.00 | 38 | 1015.7 |
| 20260508025620 | 57 | 125 | 0.0 | 2.0 | 0.00 | 0.00 | 0.00 | 38 | 1015.3 |
| 20260508025120 | 58 | 161 | 0.0 | 0.0 | 0.00 | 0.00 | 0.00 | 37 | 1015.1 |
| 20260508024619 | 58 | 161 | 0.0 | 0.0 | 0.00 | 0.00 | 0.00 | 37 | 1015.1 |
| 20260508024506 | 58 | 162 | 0.0 | 0.0 | 0.00 | 0.00 | 0.00 | 36 | 1015.6 |
| 20260508024119 | 58 | 161 | 0.0 | 1.0 | 0.00 | 0.00 | 0.00 | 37 | 1015.1 |
| 20260508023618 | 59 | 161 | 0.0 | 3.0 | 0.00 | 0.00 | 0.00 | 36 | 1015.1 |
| 20260508023116 | 59 | 160 | 0.0 | 3.0 | 0.00 | 0.00 | 0.00 | 35 | 1014.9 |
| 20260508023008 | 58 | 161 | 0.0 | 4.0 | 0.00 | 0.00 | 0.00 | 35 | 1015.5 |
| 20260508022615 | 59 | 160 | 1.0 | 3.0 | 0.00 | 0.00 | 0.00 | 34 | 1014.9 |
| 20260508022113 | 59 | 157 | 1.0 | 3.0 | 0.00 | 0.00 | 0.00 | 33 | 1014.9 |
| 20260508021514 | 60 | 250 | 0.0 | 1.0 | 0.00 | 0.00 | 0.00 | 29 | 1015.3 |
| 20260508021108 | 60 | 264 | 0.0 | 1.0 | 0.00 | 0.00 | 0.00 | 28 | 1014.7 |
| 20260508020607 | 61 | 264 | 0.0 | 3.0 | 0.00 | 0.00 | 0.00 | 29 | 1014.7 |
| 20260508020104 | 61 | 264 | 1.0 | 4.0 | 0.00 | 0.00 | 0.00 | 28 | 1014.7 |
| 20260508020029 | 61 | 261 | 0.0 | 4.0 | 0.00 | 0.00 | 0.00 | 27 | 1015.2 |
| 20260508015601 | 61 | 268 | 1.0 | 4.0 | 0.00 | 0.00 | 0.00 | 27 | 1014.7 |
| 20260508014601 | 62 | 271 | 1.0 | 3.0 | 0.00 | 0.00 | 0.00 | 26 | 1014.4 |
| 20260508014524 | 61 | 268 | 1.0 | 3.0 | 0.00 | 0.00 | 0.00 | 26 | 1015.0 |
| 20260508014101 | 62 | 279 | 2.0 | 5.0 | 0.00 | 0.00 | 0.00 | 26 | 1014.3 |
| 20260508013558 | 62 | 288 | 2.0 | 5.0 | 0.00 | 0.00 | 0.00 | 25 | 1014.3 |
| 20260508013058 | 62 | 307 | 2.0 | 4.0 | 0.00 | 0.00 | 0.00 | 26 | 1014.4 |
| 20260508013007 | 62 | 269 | 1.0 | 4.0 | 0.00 | 0.00 | 0.00 | 25 | 1015.0 |
| 20260508012059 | 62 | 288 | 2.0 | 7.0 | 0.00 | 0.00 | 0.00 | 25 | 1014.3 |
| 20260508011553 | 63 | 0 | 2.0 | 7.0 | 0.00 | 0.00 | 0.00 | 25 | 1014.2 |
| 20260508011513 | 62 | 310 | 2.0 | 9.0 | 0.00 | 0.00 | 0.00 | 25 | 1014.8 |
| 20260508011046 | 63 | 268 | 2.0 | 8.0 | 0.00 | 0.00 | 0.00 | 25 | 1014.2 |
| 20260508010545 | 63 | 293 | 2.0 | 8.0 | 0.00 | 0.00 | 0.00 | 24 | 1014.1 |
| 20260508010047 | 63 | 336 | 3.0 | 8.0 | 0.00 | 0.00 | 0.00 | 26 | 1014.1 |
| 20260508010018 | 63 | 355 | 1.0 | 9.0 | 0.00 | 0.00 | 0.00 | 24 | 1014.7 |
| 20260508005545 | 63 | 321 | 3.0 | 8.0 | 0.00 | 0.00 | 0.00 | 25 | 1014.1 |
| 20260508005046 | 63 | 271 | 3.0 | 7.0 | 0.00 | 0.00 | 0.00 | 24 | 1014.1 |
| 20260508004545 | 63 | 275 | 3.0 | 8.0 | 0.00 | 0.00 | 0.00 | 25 | 1014.1 |
| 20260508004520 | 63 | 283 | 1.0 | 9.0 | 0.00 | 0.00 | 0.00 | 25 | 1014.6 |
| 20260508004043 | 63 | 288 | 3.0 | 9.0 | 0.00 | 0.00 | 0.00 | 25 | 1014.1 |
| 20260508003541 | 63 | 321 | 4.0 | 9.0 | 0.00 | 0.00 | 0.00 | 24 | 1014.1 |
| 20260508003043 | 63 | 288 | 3.0 | 8.0 | 0.00 | 0.00 | 0.00 | 24 | 1014.0 |
| 20260508003026 | 63 | 271 | 4.0 | 9.0 | 0.00 | 0.00 | 0.00 | 23 | 1014.6 |
| 20260508002541 | 64 | 262 | 2.0 | 7.0 | 0.00 | 0.00 | 0.00 | 24 | 1014.0 |
| 20260508002041 | 64 | 304 | 3.0 | 7.0 | 0.00 | 0.00 | 0.00 | 24 | 1014.0 |
| 20260508001541 | 64 | 273 | 3.0 | 9.0 | 0.00 | 0.00 | 0.00 | 24 | 1014.0 |
| 20260508001519 | 63 | 350 | 3.0 | 10.0 | 0.00 | 0.00 | 0.00 | 23 | 1014.4 |
| 20260508001040 | 64 | 301 | 3.0 | 9.0 | 0.00 | 0.00 | 0.00 | 24 | 1014.0 |
| 20260508000541 | 64 | 281 | 1.0 | 5.0 | 0.00 | 0.00 | 0.00 | 25 | 1014.1 |
| 20260508000041 | 64 | 326 | 1.0 | 8.0 | 0.00 | 0.00 | 0.00 | 24 | 1014.1 |
| 20260508000016 | 63 | 282 | 1.0 | 8.0 | 0.00 | 0.00 | 0.00 | 23 | 1014.6 |
| 20260507235537 | 64 | 343 | 2.0 | 8.0 | 0.00 | 0.00 | 0.00 | 24 | 1014.1 |
| 20260507235037 | 64 | 288 | 3.0 | 9.0 | 0.00 | 0.00 | 0.00 | 25 | 1014.1 |
| 20260507234537 | 64 | 301 | 4.0 | 9.0 | 0.00 | 0.00 | 0.00 | 23 | 1014.1 |
| 20260507234519 | 63 | 304 | 2.0 | 10.0 | 0.00 | 0.00 | 0.00 | 23 | 1014.8 |
| 20260507234036 | 64 | 271 | 3.0 | 8.0 | 0.00 | 0.00 | 0.00 | 23 | 1014.1 |
| 20260507233537 | 64 | 224 | 3.0 | 8.0 | 0.00 | 0.00 | 0.00 | 24 | 1014.1 |
| 20260507233037 | 64 | 287 | 4.0 | 10.0 | 0.00 | 0.00 | 0.00 | 24 | 1014.1 |
| 20260507233025 | 64 | 13 | 2.0 | 13.0 | 0.00 | 0.00 | 0.00 | 23 | 1014.7 |
| 20260507232036 | 64 | 292 | 5.0 | 12.0 | 0.00 | 0.00 | 0.00 | 23 | 1014.1 |
| 20260507231532 | 64 | 250 | 5.0 | 13.0 | 0.00 | 0.00 | 0.00 | 22 | 1014.7 |
| 20260507231032 | 65 | 298 | 5.0 | 12.0 | 0.00 | 0.00 | 0.00 | 23 | 1014.2 |
| 20260507230532 | 66 | 318 | 6.0 | 14.0 | 0.00 | 0.00 | 0.00 | 22 | 1014.2 |
| 20260507230033 | 66 | 304 | 8.0 | 17.0 | 0.00 | 0.00 | 0.00 | 22 | 1014.2 |
| 20260507230012 | 66 | 327 | 8.0 | 18.0 | 0.00 | 0.00 | 0.00 | 21 | 1014.7 |
| 20260507225532 | 67 | 281 | 7.0 | 17.0 | 0.00 | 0.00 | 0.00 | 22 | 1014.2 |
| 20260507225032 | 67 | 331 | 6.0 | 13.0 | 0.00 | 0.00 | 0.00 | 22 | 1014.2 |
| 20260507224533 | 67 | 348 | 6.0 | 13.0 | 0.00 | 0.00 | 0.00 | 22 | 1014.1 |
| 20260507224516 | 66 | 307 | 7.0 | 14.0 | 0.00 | 0.00 | 0.00 | 21 | 1014.7 |
| 20260507224032 | 67 | 268 | 5.0 | 14.0 | 0.00 | 0.00 | 0.00 | 21 | 1014.2 |
| 20260507223033 | 67 | 287 | 6.0 | 14.0 | 0.00 | 0.00 | 0.00 | 21 | 1014.3 |
| 20260507223024 | 67 | 273 | 5.0 | 16.0 | 0.00 | 0.00 | 0.00 | 20 | 1014.9 |
| 20260507222527 | 68 | 319 | 6.0 | 15.0 | 0.00 | 0.00 | 0.00 | 22 | 1014.2 |
| 20260507222028 | 67 | 302 | 5.0 | 15.0 | 0.00 | 0.00 | 0.00 | 21 | 1014.1 |
| 20260507221524 | 67 | 228 | 6.0 | 15.0 | 0.00 | 0.00 | 0.00 | 20 | 1014.7 |
| 20260507221028 | 67 | 258 | 6.0 | 15.0 | 0.00 | 0.00 | 0.00 | 21 | 1014.2 |
| 20260507220528 | 67 | 294 | 6.0 | 15.0 | 0.00 | 0.00 | 0.00 | 21 | 1014.2 |
| 20260507220029 | 67 | 319 | 6.0 | 13.0 | 0.00 | 0.00 | 0.00 | 22 | 1014.2 |
| 20260507220020 | 66 | 343 | 7.0 | 14.0 | 0.00 | 0.00 | 0.00 | 21 | 1014.8 |
| 20260507215529 | 67 | 276 | 4.0 | 12.0 | 0.00 | 0.00 | 0.00 | 24 | 1014.3 |
| 20260507215030 | 66 | 341 | 4.0 | 11.0 | 0.00 | 0.00 | 0.00 | 24 | 1014.4 |
| 20260507214512 | 66 | 294 | 4.0 | 11.0 | 0.00 | 0.00 | 0.00 | 24 | 1015.0 |
| 20260507214025 | 66 | 340 | 6.0 | 12.0 | 0.00 | 0.00 | 0.00 | 24 | 1014.6 |
| 20260507213525 | 66 | 295 | 5.0 | 12.0 | 0.00 | 0.00 | 0.00 | 25 | 1014.7 |
| 20260507213024 | 66 | 257 | 3.0 | 10.0 | 0.00 | 0.00 | 0.00 | 25 | 1014.7 |
| 20260507213006 | 66 | 282 | 4.0 | 11.0 | 0.00 | 0.00 | 0.00 | 24 | 1015.2 |
| 20260507212525 | 66 | 265 | 3.0 | 10.0 | 0.00 | 0.00 | 0.00 | 26 | 1014.9 |
| 20260507211523 | 65 | 328 | 4.0 | 13.0 | 0.00 | 0.00 | 0.00 | 26 | 1015.1 |
| 20260507211503 | 65 | 264 | 3.0 | 14.0 | 0.00 | 0.00 | 0.00 | 26 | 1015.5 |
| 20260507211023 | 65 | 323 | 4.0 | 12.0 | 0.00 | 0.00 | 0.00 | 26 | 1015.1 |
| 20260507210524 | 65 | 83 | 4.0 | 11.0 | 0.00 | 0.00 | 0.00 | 26 | 1015.2 |
| 20260507210021 | 65 | 321 | 4.0 | 14.0 | 0.00 | 0.00 | 0.00 | 25 | 1015.4 |
| 20260507210006 | 65 | 281 | 3.0 | 15.0 | 0.00 | 0.00 | 0.00 | 26 | 1015.9 |
| 20260507205015 | 65 | 304 | 6.0 | 17.0 | 0.00 | 0.00 | 0.00 | 24 | 1015.5 |
| 20260507204513 | 65 | 300 | 10.0 | 18.0 | 0.00 | 0.00 | 0.00 | 24 | 1016.1 |
| 20260507204510 | 65 | 284 | 6.0 | 17.0 | 0.00 | 0.00 | 0.00 | 25 | 1015.7 |
| 20260507204004 | 65 | 224 | 5.0 | 11.0 | 0.00 | 0.00 | 0.00 | 26 | 1015.5 |
| 20260507203458 | 65 | 338 | 5.0 | 11.0 | 0.00 | 0.00 | 0.00 | 27 | 1015.8 |